Time;durP1;ratioP1;P1;durP2;ratioP2;P2;SDS_P1;SDS_P2;PMS_P1;PMS_P2;Temp;Humidity;BMP_temperature;BMP_pressure;BME280_temperature;BME280_humidity;BME280_pressure;Samples;Min_cycle;Max_cycle;Signal;HPM_P1;HPM_P2
2022/11/11 00:01:18;;;;;;;;;;;10.70;94.10;;;;;;5066373;28;19955;-73
2022/11/11 00:03:44;;;;;;;;;;;10.70;94.20;;;;;;5067010;28;20012;-73
2022/11/11 00:06:11;;;;;;;;;;;10.70;94.10;;;;;;5066968;28;19912;-73
2022/11/11 00:08:37;;;;;;;;;;;10.80;94.10;;;;;;5066509;28;19936;-73
2022/11/11 00:11:12;;;;;;;;;;;10.80;94.20;;;;;;5065857;28;20326;-73
2022/11/11 00:13:39;;;;;;;;;;;10.80;94.20;;;;;;5077731;28;19916;-73
2022/11/11 00:16:13;;;;;;;;;;;10.70;94.10;;;;;;5086615;28;19920;-73
2022/11/11 00:27:06;;;;;;;;;;;10.70;94.20;;;;;;5046528;28;19920;-73
2022/11/11 00:29:31;;;;;;;;;;;10.70;94.20;;;;;;5078294;28;19913;-73
2022/11/11 00:35:52;;;;;;;;;;;10.70;94.20;;;;;;5066123;28;19923;-73
2022/11/11 00:37:26;;;;;;;;;;;10.60;94.20;;;;;;5066348;28;19919;-74
2022/11/11 00:39:52;;;;;;;;;;;10.70;94.20;;;;;;5065733;28;19913;-74
2022/11/11 00:42:17;;;;;;;;;;;10.70;94.20;;;;;;5067130;28;19916;-72
2022/11/11 00:44:42;;;;;;;;;;;10.70;94.20;;;;;;5086219;28;19908;-73
2022/11/11 00:52:37;;;;;;;;;;;10.60;94.20;;;;;;5062818;28;19958;-73
2022/11/11 00:55:03;;;;;;;;;;;10.60;94.20;;;;;;5046886;28;19913;-73
2022/11/11 00:57:28;;;;;;;;;;;10.60;94.20;;;;;;5046097;28;20000;-73
2022/11/11 00:59:54;;;;;;;;;;;10.60;94.20;;;;;;5050076;28;19981;-73
2022/11/11 01:02:19;;;;;;;;;;;10.60;94.50;;;;;;5065049;28;20003;-73
2022/11/11 01:04:44;;;;;;;;;;;10.60;94.20;;;;;;5065794;28;20670;-73
2022/11/11 01:07:10;;;;;;;;;;;10.60;94.20;;;;;;5065924;28;19931;-74
2022/11/11 01:09:35;;;;;;;;;;;10.50;94.10;;;;;;5065732;28;20450;-73
2022/11/11 01:12:01;;;;;;;;;;;10.50;94.10;;;;;;5065631;28;20013;-73
2022/11/11 01:14:26;;;;;;;;;;;10.50;94.10;;;;;;5084162;28;19916;-73
2022/11/11 01:16:52;;;;;;;;;;;10.50;94.40;;;;;;5079339;28;19913;-73
2022/11/11 01:19:17;;;;;;;;;;;10.50;94.10;;;;;;5064654;28;20721;-73
2022/11/11 01:21:43;;;;;;;;;;;10.50;94.00;;;;;;5065097;28;19912;-73
2022/11/11 01:24:08;;;;;;;;;;;10.50;94.10;;;;;;5064026;28;20007;-73
2022/11/11 01:26:34;;;;;;;;;;;10.50;94.10;;;;;;5065353;28;19917;-73
2022/11/11 01:28:59;;;;;;;;;;;10.50;94.10;;;;;;5065225;28;19955;-73
2022/11/11 01:31:25;;;;;;;;;;;10.50;94.10;;;;;;5048346;28;19913;-73
2022/11/11 01:33:51;;;;;;;;;;;10.50;94.10;;;;;;5045159;28;19916;-73
2022/11/11 01:36:17;;;;;;;;;;;10.50;94.10;;;;;;5044014;28;20277;-73
2022/11/11 01:38:43;;;;;;;;;;;10.50;94.10;;;;;;5045233;28;19957;-73
2022/11/11 01:43:57;;;;;;;;;;;10.50;94.10;;;;;;5074465;28;19935;-73
2022/11/11 01:46:31;;;;;;;;;;;10.50;94.00;;;;;;5084578;28;20364;-73
2022/11/11 01:49:18;;;;;;;;;;;10.50;94.00;;;;;;5085182;28;20543;-73
2022/11/11 01:51:46;;;;;;;;;;;10.50;93.90;;;;;;5065980;28;19913;-73
2022/11/11 01:54:15;;;;;;;;;;;10.50;94.00;;;;;;5064370;28;19920;-73
2022/11/11 01:56:41;;;;;;;;;;;10.50;94.00;;;;;;5064578;28;20014;-73
2022/11/11 01:59:10;;;;;;;;;;;10.50;94.00;;;;;;5064848;28;19919;-73
2022/11/11 02:01:35;;;;;;;;;;;10.50;94.00;;;;;;5064761;28;19913;-73
2022/11/11 02:06:47;;;;;;;;;;;10.50;94.00;;;;;;5068004;28;20427;-73
2022/11/11 02:09:12;;;;;;;;;;;10.50;94.00;;;;;;5068197;28;20519;-73
2022/11/11 02:14:36;;;;;;;;;;;10.50;94.00;;;;;;5086818;28;19918;-73
2022/11/11 02:17:04;;;;;;;;;;;10.40;94.00;;;;;;5081980;28;20452;-73
2022/11/11 02:19:52;;;;;;;;;;;10.40;94.00;;;;;;5068112;28;20038;-73
2022/11/11 02:22:27;;;;;;;;;;;10.50;94.00;;;;;;5067517;28;19951;-73
2022/11/11 02:24:53;;;;;;;;;;;10.50;94.00;;;;;;5067501;28;20285;-75
2022/11/11 02:27:19;;;;;;;;;;;10.50;94.00;;;;;;5068573;28;19908;-73
2022/11/11 02:29:46;;;;;;;;;;;10.50;94.00;;;;;;5064803;28;20004;-73
2022/11/11 02:32:11;;;;;;;;;;;10.50;94.00;;;;;;5048363;28;19997;-73
2022/11/11 02:34:37;;;;;;;;;;;10.50;94.00;;;;;;5048215;28;19913;-73
2022/11/11 02:37:05;;;;;;;;;;;10.40;93.90;;;;;;5048477;28;19920;-74
2022/11/11 02:39:31;;;;;;;;;;;10.50;93.90;;;;;;5058158;28;20047;-73
2022/11/11 02:41:57;;;;;;;;;;;10.40;93.90;;;;;;5067231;28;19913;-73
2022/11/11 02:44:26;;;;;;;;;;;10.40;93.90;;;;;;5086062;28;19919;-73
2022/11/11 02:46:51;;;;;;;;;;;10.40;93.90;;;;;;5080281;28;20003;-73
2022/11/11 02:49:17;;;;;;;;;;;10.40;94.00;;;;;;5066408;28;20039;-73
2022/11/11 02:51:42;;;;;;;;;;;10.40;93.90;;;;;;5061744;28;19916;-73
2022/11/11 02:54:08;;;;;;;;;;;10.40;93.90;;;;;;5067540;28;19932;-73
2022/11/11 02:59:20;;;;;;;;;;;10.40;94.00;;;;;;5067834;28;19919;-73
2022/11/11 03:01:46;;;;;;;;;;;10.40;93.90;;;;;;5047485;28;19909;-74
2022/11/11 03:04:12;;;;;;;;;;;10.40;93.90;;;;;;5047858;28;19970;-74
2022/11/11 03:06:37;;;;;;;;;;;10.40;93.90;;;;;;5047822;28;19913;-74
2022/11/11 03:09:03;;;;;;;;;;;10.40;93.90;;;;;;5054608;28;19916;-74
2022/11/11 03:11:28;;;;;;;;;;;10.40;93.90;;;;;;5067340;28;19967;-74
2022/11/11 03:13:54;;;;;;;;;;;10.40;93.90;;;;;;5077753;28;19916;-74
2022/11/11 03:19:04;;;;;;;;;;;10.40;93.90;;;;;;5067239;28;19919;-74
2022/11/11 03:21:29;;;;;;;;;;;10.40;93.90;;;;;;5066877;28;19913;-74
2022/11/11 03:23:55;;;;;;;;;;;10.40;93.90;;;;;;5067110;28;19913;-74
2022/11/11 03:26:20;;;;;;;;;;;10.40;94.00;;;;;;5067119;28;19912;-75
2022/11/11 03:28:46;;;;;;;;;;;10.40;93.90;;;;;;5066678;28;19913;-75
2022/11/11 03:31:11;;;;;;;;;;;10.40;93.90;;;;;;5065054;28;19939;-74
2022/11/11 03:33:37;;;;;;;;;;;10.40;93.90;;;;;;5065920;28;19916;-74
2022/11/11 03:36:02;;;;;;;;;;;10.40;93.90;;;;;;5066931;28;19912;-74
2022/11/11 03:38:28;;;;;;;;;;;10.40;93.90;;;;;;5066863;28;20025;-74
2022/11/11 03:40:55;;;;;;;;;;;10.40;93.90;;;;;;5066834;28;20550;-74
2022/11/11 03:43:22;;;;;;;;;;;10.40;93.90;;;;;;5076343;28;20022;-74
2022/11/11 03:45:47;;;;;;;;;;;10.40;93.90;;;;;;5087328;28;20046;-73
2022/11/11 03:48:14;;;;;;;;;;;10.30;94.20;;;;;;5086083;28;20366;-74
2022/11/11 03:50:39;;;;;;;;;;;10.30;93.90;;;;;;5076785;28;20047;-74
2022/11/11 03:53:05;;;;;;;;;;;10.30;93.90;;;;;;5067024;28;20036;-74
2022/11/11 03:55:31;;;;;;;;;;;10.30;93.90;;;;;;5066989;28;20377;-74
2022/11/11 03:57:56;;;;;;;;;;;10.30;93.90;;;;;;5066831;28;19916;-73
2022/11/11 04:00:23;;;;;;;;;;;10.30;93.90;;;;;;5066381;28;19912;-74
2022/11/11 04:11:07;;;;;;;;;;;10.30;93.90;;;;;;5066236;28;19922;-74
2022/11/11 04:16:17;;;;;;;;;;;10.30;93.90;;;;;;5085765;28;20423;-74
2022/11/11 04:21:42;;;;;;;;;;;10.30;93.90;;;;;;5066274;28;20608;-74
2022/11/11 04:27:03;;;;;;;;;;;10.30;93.90;;;;;;5066666;28;19973;-75
2022/11/11 04:29:29;;;;;;;;;;;10.30;93.90;;;;;;5064840;28;19985;-74
2022/11/11 04:34:42;;;;;;;;;;;10.20;93.80;;;;;;5045955;28;19989;-74
2022/11/11 04:37:08;;;;;;;;;;;10.30;93.80;;;;;;5045330;28;19920;-74
2022/11/11 04:42:18;;;;;;;;;;;10.20;93.90;;;;;;5059565;28;19919;-74
2022/11/11 04:47:27;;;;;;;;;;;10.30;93.90;;;;;;5086307;28;19965;-74
2022/11/11 04:49:53;;;;;;;;;;;10.20;93.90;;;;;;5082050;28;19912;-74
2022/11/11 04:52:28;;;;;;;;;;;10.20;93.80;;;;;;5065291;28;19912;-74
2022/11/11 04:57:42;;;;;;;;;;;10.20;93.90;;;;;;5065978;28;19919;-74
2022/11/11 05:00:11;;;;;;;;;;;10.20;93.90;;;;;;5063324;28;20007;-74
2022/11/11 05:05:22;;;;;;;;;;;10.20;93.90;;;;;;5065656;28;19915;-74
2022/11/11 05:10:31;;;;;;;;;;;10.20;93.90;;;;;;5064864;28;20642;-74
2022/11/11 05:21:19;;;;;;;;;;;10.20;93.90;;;;;;5071495;28;19920;-74
2022/11/11 05:21:24;;;;;;;;;;;10.20;93.90;;;;;;5045143;28;20002;-73
2022/11/11 05:26:34;;;;;;;;;;;10.20;93.90;;;;;;5045456;28;20110;-74
2022/11/11 05:28:59;;;;;;;;;;;10.10;93.90;;;;;;5045290;28;20027;-74
2022/11/11 05:31:25;;;;;;;;;;;10.20;93.90;;;;;;5061972;28;20619;-74
2022/11/11 05:33:50;;;;;;;;;;;10.10;93.90;;;;;;5063141;28;20624;-75
2022/11/11 05:36:16;;;;;;;;;;;10.10;93.90;;;;;;5064900;28;20299;-74
2022/11/11 05:38:42;;;;;;;;;;;10.10;93.90;;;;;;5065151;28;19913;-74
2022/11/11 05:41:08;;;;;;;;;;;10.10;93.90;;;;;;5064484;28;20003;-74
2022/11/11 05:43:33;;;;;;;;;;;10.10;93.90;;;;;;5076583;28;20256;-74
2022/11/11 05:45:59;;;;;;;;;;;10.10;93.90;;;;;;5085663;28;20016;-74
2022/11/11 05:48:24;;;;;;;;;;;10.10;93.90;;;;;;5085279;28;19924;-73
2022/11/11 05:50:50;;;;;;;;;;;10.10;93.90;;;;;;5072788;28;19916;-73
2022/11/11 05:53:15;;;;;;;;;;;10.10;93.90;;;;;;5064790;28;19913;-74
2022/11/11 05:55:40;;;;;;;;;;;10.10;93.90;;;;;;5064935;28;20314;-73
2022/11/11 05:58:06;;;;;;;;;;;10.00;93.90;;;;;;5065666;28;19920;-74
2022/11/11 06:00:31;;;;;;;;;;;10.00;93.90;;;;;;5066108;28;20659;-74
2022/11/11 06:03:04;;;;;;;;;;;10.00;93.90;;;;;;5065360;28;19938;-73
2022/11/11 06:05:30;;;;;;;;;;;10.00;93.90;;;;;;5064623;28;19913;-74
2022/11/11 06:07:55;;;;;;;;;;;10.00;93.80;;;;;;5064585;28;19986;-74
2022/11/11 06:10:31;;;;;;;;;;;10.00;93.90;;;;;;5064597;28;20368;-74
2022/11/11 06:13:08;;;;;;;;;;;10.00;93.90;;;;;;5070653;28;19920;-74
2022/11/11 06:15:38;;;;;;;;;;;10.00;93.90;;;;;;5084992;28;19912;-74
2022/11/11 06:18:04;;;;;;;;;;;10.00;93.90;;;;;;5069047;28;19912;-74
2022/11/11 06:20:29;;;;;;;;;;;10.00;93.90;;;;;;5064601;28;19932;-74
2022/11/11 06:22:55;;;;;;;;;;;10.00;93.90;;;;;;5063736;28;19912;-74
2022/11/11 06:28:12;;;;;;;;;;;10.00;93.90;;;;;;5064456;28;19917;-73
2022/11/11 06:30:38;;;;;;;;;;;10.00;93.90;;;;;;5053574;28;20609;-74
2022/11/11 06:33:06;;;;;;;;;;;10.00;93.90;;;;;;5045221;28;20001;-75
2022/11/11 06:35:35;;;;;;;;;;;10.00;93.90;;;;;;5054304;28;20405;-73
2022/11/11 06:38:01;;;;;;;;;;;10.00;93.80;;;;;;5064139;28;20046;-74
2022/11/11 06:40:27;;;;;;;;;;;10.00;93.80;;;;;;5062117;28;20019;-74
2022/11/11 06:42:53;;;;;;;;;;;10.00;93.80;;;;;;5068316;28;20863;-73
2022/11/11 06:45:18;;;;;;;;;;;10.00;93.80;;;;;;5083636;28;20003;-74
2022/11/11 06:47:44;;;;;;;;;;;9.90;93.80;;;;;;5084176;28;19978;-73
2022/11/11 06:50:09;;;;;;;;;;;10.00;93.80;;;;;;5081896;28;19913;-74
2022/11/11 06:52:35;;;;;;;;;;;10.00;93.80;;;;;;5067855;28;19943;-73
2022/11/11 06:55:00;;;;;;;;;;;10.00;93.80;;;;;;5067564;28;19928;-73
2022/11/11 06:57:25;;;;;;;;;;;10.00;93.80;;;;;;5068153;28;20003;-73
2022/11/11 06:59:51;;;;;;;;;;;10.00;93.80;;;;;;5067081;28;20019;-74
2022/11/11 07:02:17;;;;;;;;;;;9.90;93.70;;;;;;5067224;28;19985;-73
2022/11/11 07:04:42;;;;;;;;;;;9.90;93.80;;;;;;5068231;28;19919;-73
2022/11/11 07:07:08;;;;;;;;;;;10.00;93.80;;;;;;5068047;28;20543;-74
2022/11/11 07:09:33;;;;;;;;;;;10.00;93.70;;;;;;5067038;28;19916;-73
2022/11/11 07:11:59;;;;;;;;;;;10.00;93.70;;;;;;5067984;28;19920;-74
2022/11/11 07:14:24;;;;;;;;;;;10.00;93.70;;;;;;5085890;28;19931;-73
2022/11/11 07:16:50;;;;;;;;;;;10.00;93.80;;;;;;5081853;28;20569;-74
2022/11/11 07:19:15;;;;;;;;;;;10.00;93.80;;;;;;5066249;28;20565;-74
2022/11/11 07:21:41;;;;;;;;;;;10.00;93.80;;;;;;5067424;28;20354;-74
2022/11/11 07:24:06;;;;;;;;;;;10.00;93.70;;;;;;5067407;28;19912;-74
2022/11/11 07:26:32;;;;;;;;;;;9.90;93.70;;;;;;5067532;28;20193;-74
2022/11/11 07:28:57;;;;;;;;;;;10.00;93.70;;;;;;5067345;28;20015;-73
2022/11/11 07:31:22;;;;;;;;;;;10.00;93.70;;;;;;5050182;28;20000;-74
2022/11/11 07:33:48;;;;;;;;;;;10.00;93.70;;;;;;5064848;28;19922;-74
2022/11/11 07:36:13;;;;;;;;;;;9.90;93.70;;;;;;5066435;28;20449;-74
2022/11/11 07:38:39;;;;;;;;;;;10.00;93.70;;;;;;5065948;28;20015;-74
2022/11/11 07:41:04;;;;;;;;;;;10.00;93.70;;;;;;5064996;28;20417;-74
2022/11/11 07:43:30;;;;;;;;;;;10.00;93.70;;;;;;5076713;28;19919;-73
2022/11/11 07:45:55;;;;;;;;;;;10.00;93.60;;;;;;5087251;28;19923;-74
2022/11/11 07:48:21;;;;;;;;;;;10.00;93.60;;;;;;5066765;28;19917;-74
2022/11/11 07:50:46;;;;;;;;;;;10.00;93.60;;;;;;5060755;28;19919;-74
2022/11/11 07:53:12;;;;;;;;;;;10.00;93.60;;;;;;5067118;28;20436;-74
2022/11/11 07:55:37;;;;;;;;;;;10.00;93.60;;;;;;5066248;28;19917;-73
2022/11/11 07:58:03;;;;;;;;;;;10.00;93.60;;;;;;5066203;28;20015;-74
2022/11/11 08:00:28;;;;;;;;;;;10.00;93.60;;;;;;5065713;28;19979;-73
2022/11/11 08:02:54;;;;;;;;;;;10.10;93.60;;;;;;5065060;28;19999;-74
2022/11/11 08:05:19;;;;;;;;;;;10.10;93.60;;;;;;5066840;28;19919;-73
2022/11/11 08:07:45;;;;;;;;;;;10.10;93.60;;;;;;5066779;28;19912;-73
2022/11/11 08:10:11;;;;;;;;;;;10.10;93.60;;;;;;5065889;28;19913;-73
2022/11/11 08:15:20;;;;;;;;;;;10.10;93.60;;;;;;5052343;28;19923;-73
2022/11/11 08:17:46;;;;;;;;;;;10.10;93.60;;;;;;5066585;28;19908;-74
2022/11/11 08:20:12;;;;;;;;;;;10.20;93.60;;;;;;5066335;28;19912;-74
2022/11/11 08:22:38;;;;;;;;;;;10.20;93.60;;;;;;5066668;28;19978;-73
2022/11/11 08:25:08;;;;;;;;;;;10.20;93.60;;;;;;5064961;28;19957;-73
2022/11/11 08:27:34;;;;;;;;;;;10.20;93.60;;;;;;5065652;28;19912;-73
2022/11/11 08:29:59;;;;;;;;;;;10.20;93.60;;;;;;5063779;28;19920;-72
2022/11/11 08:32:25;;;;;;;;;;;10.20;93.60;;;;;;5065665;28;20065;-73
2022/11/11 08:34:50;;;;;;;;;;;10.20;93.60;;;;;;5065722;28;19916;-73
2022/11/11 08:37:16;;;;;;;;;;;10.20;93.50;;;;;;5065609;28;19912;-72
2022/11/11 08:39:41;;;;;;;;;;;10.30;93.50;;;;;;5065510;28;19912;-73
2022/11/11 08:42:07;;;;;;;;;;;10.30;93.50;;;;;;5065286;28;19912;-73
2022/11/11 08:44:32;;;;;;;;;;;10.30;93.50;;;;;;5084035;28;19912;-73
2022/11/11 08:46:58;;;;;;;;;;;10.30;93.50;;;;;;5084993;28;19912;-73
2022/11/11 08:49:23;;;;;;;;;;;10.30;93.50;;;;;;5084754;28;20036;-73
2022/11/11 08:51:49;;;;;;;;;;;10.30;93.50;;;;;;5065854;28;19912;-73
2022/11/11 08:54:14;;;;;;;;;;;10.40;93.50;;;;;;5064944;28;19920;-73
2022/11/11 08:56:40;;;;;;;;;;;10.30;93.50;;;;;;5065103;28;20007;-73
2022/11/11 08:59:05;;;;;;;;;;;10.40;93.50;;;;;;5064978;28;19920;-73
2022/11/11 09:01:31;;;;;;;;;;;10.40;93.50;;;;;;5063231;28;19943;-73
2022/11/11 09:03:56;;;;;;;;;;;10.40;93.40;;;;;;5065471;28;19999;-73
2022/11/11 09:06:22;;;;;;;;;;;10.50;93.40;;;;;;5065807;28;20579;-73
2022/11/11 09:08:47;;;;;;;;;;;10.50;93.40;;;;;;5065671;28;19916;-73
2022/11/11 09:11:13;;;;;;;;;;;10.50;93.50;;;;;;5064459;28;19917;-73
2022/11/11 09:13:39;;;;;;;;;;;10.50;93.40;;;;;;5065036;28;20272;-73
2022/11/11 09:16:05;;;;;;;;;;;10.50;93.40;;;;;;5064834;28;20782;-73
2022/11/11 09:18:31;;;;;;;;;;;10.60;93.40;;;;;;5065052;28;20677;-73
2022/11/11 09:20:57;;;;;;;;;;;10.60;93.40;;;;;;5066815;28;19916;-73
2022/11/11 09:23:22;;;;;;;;;;;10.60;93.40;;;;;;5081490;28;19955;-73
2022/11/11 09:25:48;;;;;;;;;;;10.60;93.30;;;;;;5077769;28;19962;-73
2022/11/11 09:28:14;;;;;;;;;;;10.70;93.40;;;;;;5085309;28;19916;-73
2022/11/11 09:30:39;;;;;;;;;;;10.70;93.30;;;;;;5068666;28;20322;-73
2022/11/11 09:33:05;;;;;;;;;;;10.70;93.40;;;;;;5063837;28;19963;-73
2022/11/11 09:35:30;;;;;;;;;;;10.80;93.30;;;;;;5063781;28;20029;-74
2022/11/11 09:37:57;;;;;;;;;;;10.80;93.20;;;;;;5064907;28;19912;-73
2022/11/11 09:40:24;;;;;;;;;;;10.90;93.20;;;;;;5062904;28;19913;-73
2022/11/11 09:42:52;;;;;;;;;;;10.90;93.20;;;;;;5070107;28;19960;-74
2022/11/11 09:45:24;;;;;;;;;;;10.90;93.10;;;;;;5068417;28;19916;-73
2022/11/11 09:48:05;;;;;;;;;;;10.90;93.10;;;;;;5065229;28;20377;-73
2022/11/11 09:50:31;;;;;;;;;;;10.90;93.00;;;;;;5064462;28;19919;-73
2022/11/11 09:53:06;;;;;;;;;;;11.00;93.00;;;;;;5077453;28;19916;-73
2022/11/11 09:55:40;;;;;;;;;;;11.00;93.00;;;;;;5084987;28;19923;-73
2022/11/11 09:58:11;;;;;;;;;;;11.00;93.00;;;;;;5083585;28;20428;-73
2022/11/11 10:00:39;;;;;;;;;;;11.00;93.00;;;;;;5063908;28;20019;-73
2022/11/11 10:03:14;;;;;;;;;;;11.10;93.30;;;;;;5067232;28;19973;-73
2022/11/11 10:05:55;;;;;;;;;;;11.10;93.00;;;;;;5067240;28;20033;-72
2022/11/11 10:08:38;;;;;;;;;;;11.10;93.00;;;;;;5065708;28;19970;-73
2022/11/11 10:11:10;;;;;;;;;;;11.20;92.90;;;;;;5068248;28;20003;-73
2022/11/11 10:13:37;;;;;;;;;;;11.20;92.90;;;;;;5075475;28;19958;-73
2022/11/11 10:16:16;;;;;;;;;;;11.20;92.90;;;;;;5052391;28;19982;-73
2022/11/11 10:18:49;;;;;;;;;;;11.20;92.80;;;;;;5044257;28;19913;-73
2022/11/11 10:21:19;;;;;;;;;;;11.30;92.80;;;;;;5044905;28;19913;-73
2022/11/11 10:23:47;;;;;;;;;;;11.30;92.70;;;;;;5046138;28;19917;-73
2022/11/11 10:26:22;;;;;;;;;;;11.30;92.80;;;;;;5048435;28;19912;-73
2022/11/11 10:28:49;;;;;;;;;;;11.30;92.80;;;;;;5048558;28;19917;-73
2022/11/11 10:31:17;;;;;;;;;;;11.40;92.80;;;;;;5063486;28;19917;-73
2022/11/11 10:33:48;;;;;;;;;;;11.40;92.80;;;;;;5066661;28;19913;-73
2022/11/11 10:36:18;;;;;;;;;;;11.40;92.70;;;;;;5068116;28;19908;-73
2022/11/11 10:38:51;;;;;;;;;;;11.40;92.70;;;;;;5067590;28;20329;-73
2022/11/11 10:41:20;;;;;;;;;;;11.50;92.80;;;;;;5067908;28;19912;-73
2022/11/11 10:43:48;;;;;;;;;;;11.40;92.70;;;;;;5081099;28;19912;-73
2022/11/11 10:46:17;;;;;;;;;;;11.50;92.80;;;;;;5088696;28;19998;-73
2022/11/11 10:48:48;;;;;;;;;;;11.50;92.80;;;;;;5088574;28;20627;-73
2022/11/11 10:51:15;;;;;;;;;;;11.50;92.80;;;;;;5073283;28;20564;-72
2022/11/11 10:53:46;;;;;;;;;;;11.50;92.80;;;;;;5067832;28;19919;-72
2022/11/11 10:56:17;;;;;;;;;;;11.50;92.80;;;;;;5067598;28;19916;-73
2022/11/11 10:58:46;;;;;;;;;;;11.60;92.80;;;;;;5067955;28;19944;-73
2022/11/11 11:01:14;;;;;;;;;;;11.60;92.80;;;;;;5067651;28;19917;-72
2022/11/11 11:03:46;;;;;;;;;;;11.60;92.80;;;;;;5068113;28;19912;-73
2022/11/11 11:06:18;;;;;;;;;;;11.70;92.70;;;;;;5066913;28;19912;-73
2022/11/11 11:08:48;;;;;;;;;;;11.70;92.70;;;;;;5060394;28;19908;-73
2022/11/11 11:11:20;;;;;;;;;;;11.70;92.70;;;;;;5057748;28;20011;-73
2022/11/11 11:13:51;;;;;;;;;;;11.70;92.50;;;;;;5071731;28;19913;-72
2022/11/11 11:16:19;;;;;;;;;;;11.70;92.60;;;;;;5066549;28;20010;-73
2022/11/11 11:19:04;;;;;;;;;;;11.80;92.60;;;;;;5066125;28;19916;-73
2022/11/11 11:21:46;;;;;;;;;;;11.80;92.40;;;;;;5065936;28;19919;-73
2022/11/11 11:24:18;;;;;;;;;;;11.80;92.40;;;;;;5066190;28;19913;-73
2022/11/11 11:26:44;;;;;;;;;;;11.90;92.50;;;;;;5066024;28;19909;-73
2022/11/11 11:29:10;;;;;;;;;;;11.90;92.50;;;;;;5064701;28;19912;-73
2022/11/11 11:31:37;;;;;;;;;;;11.90;92.40;;;;;;5065730;28;19919;-73
2022/11/11 11:34:02;;;;;;;;;;;12.00;92.40;;;;;;5065556;28;20617;-73
2022/11/11 11:36:28;;;;;;;;;;;12.00;92.50;;;;;;5065815;28;20008;-73
2022/11/11 11:38:53;;;;;;;;;;;12.00;92.10;;;;;;5060516;28;19913;-73
2022/11/11 11:41:35;;;;;;;;;;;12.00;92.20;;;;;;5045501;28;19998;-73
2022/11/11 11:44:01;;;;;;;;;;;12.10;92.20;;;;;;5052937;28;19912;-73
2022/11/11 11:46:28;;;;;;;;;;;12.10;92.20;;;;;;5065830;28;19961;-73
2022/11/11 11:49:01;;;;;;;;;;;12.10;92.20;;;;;;5065414;28;19912;-73
2022/11/11 11:51:30;;;;;;;;;;;12.10;92.20;;;;;;5067081;28;19912;-73
2022/11/11 11:54:07;;;;;;;;;;;12.10;92.20;;;;;;5064684;28;19924;-74
2022/11/11 11:56:37;;;;;;;;;;;12.20;92.30;;;;;;5064049;28;19920;-74
2022/11/11 11:59:08;;;;;;;;;;;12.20;92.10;;;;;;5066252;28;19991;-74
2022/11/11 12:01:33;;;;;;;;;;;12.20;92.30;;;;;;5065064;28;19912;-73
2022/11/11 12:04:18;;;;;;;;;;;12.20;92.30;;;;;;5065059;28;19986;-74
2022/11/11 12:06:55;;;;;;;;;;;12.20;92.40;;;;;;5065195;28;19913;-74
2022/11/11 12:09:21;;;;;;;;;;;12.20;92.30;;;;;;5055622;28;19959;-73
2022/11/11 12:11:52;;;;;;;;;;;12.20;92.40;;;;;;5045414;28;20429;-74
2022/11/11 12:14:23;;;;;;;;;;;12.30;92.50;;;;;;5077964;28;20543;-74
2022/11/11 12:16:52;;;;;;;;;;;12.30;92.30;;;;;;5084463;28;19919;-74
2022/11/11 12:19:36;;;;;;;;;;;12.30;92.50;;;;;;5084692;28;19919;-73
2022/11/11 12:22:21;;;;;;;;;;;12.30;92.40;;;;;;5084716;28;19912;-74
2022/11/11 12:24:46;;;;;;;;;;;12.30;92.30;;;;;;5079921;28;19912;-74
2022/11/11 12:27:21;;;;;;;;;;;12.30;92.50;;;;;;5044684;28;19917;-74
2022/11/11 12:30:00;;;;;;;;;;;12.30;92.60;;;;;;5055951;28;19919;-74
2022/11/11 12:32:26;;;;;;;;;;;12.30;92.50;;;;;;5065181;28;20392;-73
2022/11/11 12:35:10;;;;;;;;;;;12.30;92.40;;;;;;5064690;28;19923;-74
2022/11/11 12:37:54;;;;;;;;;;;12.30;92.60;;;;;;5063995;28;20285;-74
2022/11/11 12:40:38;;;;;;;;;;;12.30;92.40;;;;;;5064363;28;19944;-74
2022/11/11 12:43:13;;;;;;;;;;;12.30;92.50;;;;;;5072229;28;19935;-74
2022/11/11 12:45:53;;;;;;;;;;;12.30;92.60;;;;;;5084650;28;20344;-74
2022/11/11 12:48:24;;;;;;;;;;;12.30;92.40;;;;;;5084337;28;19931;-74
2022/11/11 12:50:49;;;;;;;;;;;12.40;92.60;;;;;;5073821;28;19968;-73
2022/11/11 12:53:34;;;;;;;;;;;12.40;92.60;;;;;;5065242;28;19985;-73
2022/11/11 12:56:06;;;;;;;;;;;12.40;92.70;;;;;;5064812;28;19920;-73
2022/11/11 12:58:32;;;;;;;;;;;12.40;92.70;;;;;;5065280;28;20571;-73
2022/11/11 13:01:19;;;;;;;;;;;12.40;92.70;;;;;;5065383;28;19973;-73
2022/11/11 13:03:49;;;;;;;;;;;12.40;92.70;;;;;;5064973;28;20224;-73
2022/11/11 13:06:18;;;;;;;;;;;12.40;92.60;;;;;;5065306;28;19917;-73
2022/11/11 13:08:43;;;;;;;;;;;12.50;92.60;;;;;;5062050;28;19935;-73
2022/11/11 13:11:09;;;;;;;;;;;12.40;92.70;;;;;;5045923;28;20341;-73
2022/11/11 13:13:53;;;;;;;;;;;12.40;92.80;;;;;;5067646;28;19959;-73
2022/11/11 13:16:21;;;;;;;;;;;12.50;92.80;;;;;;5084956;28;20151;-73
2022/11/11 13:18:54;;;;;;;;;;;12.50;92.90;;;;;;5083638;28;19924;-73
2022/11/11 13:21:23;;;;;;;;;;;12.50;92.80;;;;;;5084545;28;19915;-73
2022/11/11 13:23:48;;;;;;;;;;;12.50;92.80;;;;;;5085644;28;19927;-73
2022/11/11 13:26:33;;;;;;;;;;;12.50;92.80;;;;;;5085671;28;19935;-73
2022/11/11 13:29:17;;;;;;;;;;;12.50;92.80;;;;;;5085386;28;19920;-74
2022/11/11 13:31:43;;;;;;;;;;;12.50;92.90;;;;;;5064773;28;19929;-74
2022/11/11 13:34:10;;;;;;;;;;;12.50;92.90;;;;;;5064979;28;20645;-74
2022/11/11 13:36:50;;;;;;;;;;;12.50;92.90;;;;;;5064589;28;19923;-74
2022/11/11 13:39:24;;;;;;;;;;;12.50;92.90;;;;;;5064941;28;19924;-74
2022/11/11 13:41:52;;;;;;;;;;;12.50;92.90;;;;;;5064995;28;19959;-73
2022/11/11 13:44:21;;;;;;;;;;;12.50;92.90;;;;;;5082115;28;19912;-74
2022/11/11 13:46:47;;;;;;;;;;;12.50;92.90;;;;;;5083022;28;20264;-73
2022/11/11 13:49:22;;;;;;;;;;;12.50;93.00;;;;;;5084823;28;19934;-74
2022/11/11 13:51:56;;;;;;;;;;;12.50;93.00;;;;;;5058468;28;20011;-73
2022/11/11 13:54:25;;;;;;;;;;;12.50;93.00;;;;;;5060516;28;19999;-73
2022/11/11 13:56:51;;;;;;;;;;;12.50;93.00;;;;;;5051667;28;19924;-74
2022/11/11 13:59:20;;;;;;;;;;;12.50;93.10;;;;;;5064119;28;20062;-73
2022/11/11 14:01:45;;;;;;;;;;;12.50;93.10;;;;;;5068238;28;19920;-73
2022/11/11 14:04:11;;;;;;;;;;;12.50;93.10;;;;;;5067722;28;19927;-74
2022/11/11 14:06:48;;;;;;;;;;;12.40;93.10;;;;;;5066652;28;19916;-73
2022/11/11 14:09:33;;;;;;;;;;;12.40;93.10;;;;;;5068260;28;19909;-73
2022/11/11 14:12:25;;;;;;;;;;;12.40;93.20;;;;;;5068158;28;19920;-73
2022/11/11 14:14:54;;;;;;;;;;;12.40;93.20;;;;;;5054566;28;20054;-73
2022/11/11 14:17:21;;;;;;;;;;;12.30;93.30;;;;;;5048780;28;19958;-73
2022/11/11 14:19:46;;;;;;;;;;;12.40;93.30;;;;;;5048336;28;19951;-73
2022/11/11 14:22:30;;;;;;;;;;;12.30;93.30;;;;;;5048484;28;19951;-73
2022/11/11 14:25:09;;;;;;;;;;;12.30;93.30;;;;;;5054352;28;19923;-74
2022/11/11 14:27:35;;;;;;;;;;;12.30;93.30;;;;;;5068052;28;19958;-74
2022/11/11 14:30:01;;;;;;;;;;;12.30;93.40;;;;;;5068164;28;20312;-74
2022/11/11 14:32:27;;;;;;;;;;;12.30;93.40;;;;;;5066902;28;20446;-73
2022/11/11 14:35:19;;;;;;;;;;;12.20;93.40;;;;;;5068377;28;19916;-73
2022/11/11 14:38:03;;;;;;;;;;;12.20;93.40;;;;;;5074002;28;19916;-74
2022/11/11 14:40:30;;;;;;;;;;;12.20;93.40;;;;;;5068152;28;20277;-73
2022/11/11 14:42:56;;;;;;;;;;;12.20;93.30;;;;;;5074104;28;20327;-73
2022/11/11 14:45:21;;;;;;;;;;;12.20;93.50;;;;;;5088714;28;20057;-73
2022/11/11 14:47:48;;;;;;;;;;;12.10;93.50;;;;;;5088565;28;20685;-72
2022/11/11 14:50:32;;;;;;;;;;;12.10;93.50;;;;;;5081410;28;19912;-73
2022/11/11 14:53:07;;;;;;;;;;;12.10;93.50;;;;;;5077008;28;20300;-73
2022/11/11 14:55:37;;;;;;;;;;;12.10;93.50;;;;;;5049942;28;19943;-74
2022/11/11 14:58:08;;;;;;;;;;;12.10;93.60;;;;;;5047140;28;19913;-73
2022/11/11 15:00:44;;;;;;;;;;;12.00;93.60;;;;;;5045772;28;19951;-74
2022/11/11 15:03:16;;;;;;;;;;;12.00;93.60;;;;;;5049773;28;19912;-74
2022/11/11 15:06:05;;;;;;;;;;;12.10;93.60;;;;;;5066708;28;19920;-74
2022/11/11 15:08:41;;;;;;;;;;;12.00;93.60;;;;;;5064370;28;19958;-74
2022/11/11 15:11:06;;;;;;;;;;;12.00;93.70;;;;;;5045009;28;20432;-73
2022/11/11 15:13:44;;;;;;;;;;;12.00;93.70;;;;;;5066691;28;19919;-74
2022/11/11 15:16:15;;;;;;;;;;;11.90;93.70;;;;;;5085964;28;19912;-73
2022/11/11 15:18:58;;;;;;;;;;;11.90;93.70;;;;;;5086891;28;19919;-74
2022/11/11 15:21:24;;;;;;;;;;;11.90;93.70;;;;;;5087299;28;19920;-74
2022/11/11 15:23:52;;;;;;;;;;;11.90;93.80;;;;;;5086168;28;19938;-74
2022/11/11 15:26:24;;;;;;;;;;;11.90;93.80;;;;;;5085832;28;19912;-74
2022/11/11 15:28:54;;;;;;;;;;;11.80;93.80;;;;;;5085751;28;20391;-74
2022/11/11 15:31:58;;;;;;;;;;;11.80;93.80;;;;;;5060282;28;19935;-74
2022/11/11 15:34:40;;;;;;;;;;;11.80;93.80;;;;;;5049704;28;20705;-74
2022/11/11 15:37:10;;;;;;;;;;;11.80;93.80;;;;;;5043111;28;19929;-74
2022/11/11 15:39:44;;;;;;;;;;;11.70;93.80;;;;;;5055253;28;19981;-74
2022/11/11 15:42:29;;;;;;;;;;;11.70;93.90;;;;;;5066199;28;19912;-74
2022/11/11 15:44:55;;;;;;;;;;;11.70;93.90;;;;;;5045298;28;19912;-74